Fernie, Canada
Current Conditions -  °F | °C
As of 9:23 AM on Monday 22 Dec 2014 (Local Time) from CYXC Reporting Station
Moderate Fog Moderate Fog  
Wind Chill: 21°   Ceiling: 200
Heat Index: 21°   Visibility: 0.5mi
Dew Point: 19°   Wind: 2mph
Humidity: 93%   Direction: NA
Pressure: 29.97"   Gusts: NA
Location:  49.51°N, 115.06°W
Report Text: CYXC 221623Z VRB02KT 1/2SM FZFG VV002 M06/M07 A2997 RMK FG8 SLP186
Loading
Personal Weather Stations






























Interactive Weather Map New forecast layout! Learn more

10-Day Weather Forecast

Advertisements
Track Severe Weather on mobile